Gasport, New York
Current Conditions -  °F | °C
As of 1:30 PM on Wednesday 26 Nov 2014 (Local Time) from KBUF Reporting Station
Light Snow Light Snow  
Wind Chill: 25°   Ceiling: 2200
Heat Index: 32°   Visibility: 1mi
Dew Point: 27°   Wind: 8mph
Humidity: 82%   Direction: 60°ENE
Pressure: 30.11"   Gusts: NA
Location:  43.2°N, 78.58°W
Report Text: KBUF 261830Z 06007KT 1SM R23/6000VP6000FT -SN OVC022 00/M03 A3011 RMK AO2 P0001 T00001028
Loading
Personal Weather Stations






























Interactive Weather Map New forecast layout! Learn more

10-Day Weather Forecast

Advertisements
Track Severe Weather on mobile